Terminal Aerodrome Forecast
Issued by NWS Topeka, KS

Home | Current Version | Previous Version | Graphics & Text | Print | Product List | Glossary On
Versions: 1 2 3 4 5 6 7 8 9 10 11 12 13 14
000
FTUS43 KTOP 211743
TAFTOP
TAF
KTOP 211743Z 2118/2218 35020G29KT P6SM FEW250
     FM220000 35007KT P6SM SKC
     FM221700 20004KT P6SM FEW250=

USA.gov is the U.S. government's official web portal to all federal, state and local government web resources and services.